Time;durP1;ratioP1;P1;durP2;ratioP2;P2;SDS_P1;SDS_P2;PMS_P1;PMS_P2;Temp;Humidity;BMP_temperature;BMP_pressure;BME280_temperature;BME280_humidity;BME280_pressure;Samples;Min_cycle;Max_cycle;Signal;HPM_P1;HPM_P2
2023/06/22 00:00:58;;;;;;;24.08;16.92;;;;;;;20.66;100.00;101831.41;5042479;28;21005;-72
2023/06/22 00:03:25;;;;;;;20.60;15.75;;;;;;;20.58;100.00;101835.81;5035931;28;20133;-73
2023/06/22 00:05:51;;;;;;;27.40;16.90;;;;;;;20.61;100.00;101836.41;5035365;28;20167;-72
2023/06/22 00:08:17;;;;;;;25.58;18.40;;;;;;;20.60;100.00;101833.84;5038450;28;20033;-72
2023/06/22 00:10:44;;;;;;;23.98;18.73;;;;;;;20.54;100.00;101831.69;5032187;28;20132;-72
2023/06/22 00:13:10;;;;;;;24.05;18.75;;;;;;;20.46;100.00;101839.59;5066440;28;20044;-73
2023/06/22 00:15:38;;;;;;;23.83;17.48;;;;;;;20.44;100.00;101827.03;5036420;28;20064;-72
2023/06/22 00:18:06;;;;;;;25.60;17.10;;;;;;;20.40;100.00;101824.75;5050416;28;20030;-72
2023/06/22 00:20:32;;;;;;;24.35;18.08;;;;;;;20.41;100.00;101826.47;5032920;28;20033;-73
2023/06/22 00:22:59;;;;;;;22.42;18.38;;;;;;;20.40;100.00;101819.31;5031839;28;20025;-72
2023/06/22 00:25:25;;;;;;;21.85;17.00;;;;;;;20.35;100.00;101821.59;5039129;28;20121;-73
2023/06/22 00:27:51;;;;;;;21.60;17.50;;;;;;;20.26;100.00;101812.41;5032793;28;20029;-72
2023/06/22 00:30:18;;;;;;;21.08;16.98;;;;;;;20.17;100.00;101807.81;5038661;28;20052;-72
2023/06/22 00:32:44;;;;;;;25.33;18.25;;;;;;;20.03;100.00;101802.75;5032276;28;20041;-73
2023/06/22 00:35:12;;;;;;;24.20;16.25;;;;;;;20.06;100.00;101805.22;5031512;28;20037;-71
2023/06/22 00:37:41;;;;;;;21.42;16.15;;;;;;;20.01;100.00;101815.59;5047655;28;20204;-73
2023/06/22 00:40:08;;;;;;;24.60;16.83;;;;;;;20.08;100.00;101814.94;5032646;28;20033;-73
2023/06/22 00:42:34;;;;;;;21.25;16.45;;;;;;;20.14;100.00;101819.78;5035453;28;20227;-73
2023/06/22 00:44:59;;;;;;;24.10;16.92;;;;;;;20.24;100.00;101819.84;5039363;28;20037;-73
2023/06/22 00:47:26;;;;;;;22.88;16.35;;;;;;;20.21;100.00;101813.84;5041104;28;20448;-71
2023/06/22 00:49:51;;;;;;;25.38;17.40;;;;;;;20.16;100.00;101820.50;5063574;28;20039;-71
2023/06/22 00:52:20;;;;;;;24.98;18.27;;;;;;;20.09;100.00;101815.78;5034319;28;20072;-71
2023/06/22 00:54:51;;;;;;;21.70;16.77;;;;;;;20.02;100.00;101807.31;5042183;28;20059;-73
2023/06/22 00:57:17;;;;;;;22.88;17.52;;;;;;;20.03;100.00;101813.59;5030839;28;20040;-71
2023/06/22 00:59:44;;;;;;;24.25;17.17;;;;;;;20.02;100.00;101815.44;5040462;28;20874;-72
2023/06/22 01:02:10;;;;;;;22.48;17.33;;;;;;;19.97;100.00;101817.69;5031624;28;20128;-71
2023/06/22 01:04:38;;;;;;;23.95;18.02;;;;;;;19.86;100.00;101826.75;5031152;28;20879;-71
2023/06/22 01:07:33;;;;;;;25.77;17.88;;;;;;;19.88;100.00;101816.69;5031701;28;20033;-71
2023/06/22 01:10:07;;;;;;;25.50;17.52;;;;;;;19.85;100.00;101810.66;5032928;28;20063;-70
2023/06/22 01:12:38;;;;;;;23.48;19.02;;;;;;;19.82;100.00;101811.78;5030963;28;20491;-71
2023/06/22 01:15:13;;;;;;;20.93;15.17;;;;;;;19.58;100.00;101805.78;5032857;28;20045;-71
2023/06/22 01:17:42;;;;;;;23.98;16.98;;;;;;;19.47;100.00;101812.06;5032967;28;20037;-71
2023/06/22 01:20:12;;;;;;;25.23;15.70;;;;;;;19.45;100.00;101807.81;5031540;28;20053;-70
2023/06/22 01:23:13;;;;;;;21.65;17.17;;;;;;;19.34;100.00;101808.72;5032512;28;20141;-71
2023/06/22 01:25:53;;;;;;;22.58;18.00;;;;;;;19.36;100.00;101804.03;5029484;28;20038;-71
2023/06/22 01:28:21;;;;;;;22.83;18.67;;;;;;;19.35;100.00;101800.47;5030796;28;20030;-71
2023/06/22 01:30:49;;;;;;;21.73;17.85;;;;;;;19.39;100.00;101804.63;5030076;28;20037;-71
2023/06/22 01:33:15;;;;;;;25.02;19.20;;;;;;;19.34;100.00;101797.91;5034044;28;20034;-70
2023/06/22 01:35:42;;;;;;;29.48;20.05;;;;;;;19.34;100.00;101798.75;5032871;28;20045;-71
2023/06/22 01:38:09;;;;;;;26.42;19.80;;;;;;;19.26;100.00;101794.97;5041640;28;20029;-71
2023/06/22 01:40:36;;;;;;;25.73;18.15;;;;;;;19.24;100.00;101792.41;5036003;28;20033;-71
2023/06/22 01:43:03;;;;;;;24.42;18.42;;;;;;;19.22;100.00;101797.06;5031786;28;20673;-72
2023/06/22 01:45:29;;;;;;;27.48;18.15;;;;;;;19.15;100.00;101787.78;5030863;28;21031;-71
2023/06/22 01:47:56;;;;;;;26.65;19.23;;;;;;;19.14;100.00;101799.59;5032945;28;20033;-71
2023/06/22 01:50:22;;;;;;;26.42;18.58;;;;;;;19.24;100.00;101789.72;5035465;28;20030;-71
2023/06/22 01:52:48;;;;;;;23.02;18.10;;;;;;;19.30;100.00;101789.19;5031573;28;20190;-71
2023/06/22 01:55:14;;;;;;;28.42;19.70;;;;;;;19.27;100.00;101792.13;5037500;28;20048;-71
2023/06/22 01:57:39;;;;;;;29.25;20.40;;;;;;;19.30;100.00;101799.16;5031116;28;20049;-71
2023/06/22 02:00:28;;;;;;;26.50;19.00;;;;;;;19.36;100.00;101795.91;5030896;28;20936;-73
2023/06/22 02:03:00;;;;;;;26.38;20.15;;;;;;;19.33;100.00;101793.50;5029761;28;20613;-71
2023/06/22 02:05:31;;;;;;;26.08;19.58;;;;;;;19.40;100.00;101795.53;5038051;28;20032;-71
2023/06/22 02:08:16;;;;;;;25.88;18.73;;;;;;;19.39;100.00;101798.38;5039479;28;20041;-71
2023/06/22 02:10:43;;;;;;;27.08;20.15;;;;;;;19.32;100.00;101798.00;5035185;28;20083;-71
2023/06/22 02:13:10;;;;;;;26.80;18.95;;;;;;;19.34;100.00;101804.16;5031023;28;20150;-71
2023/06/22 02:15:37;;;;;;;24.40;18.92;;;;;;;19.19;100.00;101786.53;5031660;28;20041;-71
2023/06/22 02:18:02;;;;;;;24.27;18.50;;;;;;;19.18;100.00;101790.25;5043411;28;20052;-71
2023/06/22 02:20:28;;;;;;;28.58;20.00;;;;;;;19.14;100.00;101791.47;5031161;28;20315;-71
2023/06/22 02:22:55;;;;;;;27.42;18.77;;;;;;;19.25;100.00;101794.13;5040218;28;20031;-72
2023/06/22 02:25:21;;;;;;;26.67;19.23;;;;;;;19.22;100.00;101797.06;5030284;28;20124;-71
2023/06/22 02:27:47;;;;;;;26.67;19.52;;;;;;;19.15;100.00;101794.03;5030233;28;20038;-71
2023/06/22 02:30:14;;;;;;;24.40;18.77;;;;;;;19.17;100.00;101791.19;5034764;28;20041;-72
2023/06/22 02:32:41;;;;;;;26.58;20.35;;;;;;;19.18;100.00;101784.81;5031390;28;20041;-72
2023/06/22 02:35:08;;;;;;;27.25;20.48;;;;;;;19.15;100.00;101785.94;5032589;28;20871;-72
2023/06/22 02:37:38;;;;;;;27.35;20.75;;;;;;;19.13;100.00;101789.78;5030640;28;20040;-72
2023/06/22 02:40:07;;;;;;;27.42;20.10;;;;;;;19.12;100.00;101774.50;5030965;28;20040;-73
2023/06/22 02:42:33;;;;;;;24.85;18.40;;;;;;;19.12;100.00;101769.97;5029820;28;20039;-73
2023/06/22 02:44:59;;;;;;;28.95;19.65;;;;;;;19.05;100.00;101784.13;5041076;28;20028;-73
2023/06/22 02:47:25;;;;;;;25.45;20.00;;;;;;;18.91;100.00;101779.88;5031486;28;20736;-72
2023/06/22 02:49:51;;;;;;;31.60;21.70;;;;;;;18.74;100.00;101766.94;5038575;28;20061;-72
2023/06/22 02:52:17;;;;;;;33.28;21.73;;;;;;;18.61;100.00;101772.44;5031609;28;20776;-72
2023/06/22 02:54:45;;;;;;;27.17;20.15;;;;;;;18.64;100.00;101783.00;5036143;28;20041;-72
2023/06/22 02:57:13;;;;;;;26.42;20.20;;;;;;;18.74;100.00;101781.28;5031462;28;20133;-72
2023/06/22 02:59:43;;;;;;;27.55;18.17;;;;;;;18.83;100.00;101780.53;5033194;28;20041;-72
2023/06/22 03:02:11;;;;;;;27.92;19.80;;;;;;;18.88;100.00;101780.16;5040097;28;20160;-72
2023/06/22 03:04:37;;;;;;;26.70;19.85;;;;;;;18.91;100.00;101782.59;5038455;28;20096;-72
2023/06/22 03:07:02;;;;;;;28.20;21.15;;;;;;;18.76;100.00;101773.91;5033378;28;20960;-71
2023/06/22 03:09:30;;;;;;;29.42;21.15;;;;;;;18.81;100.00;101771.69;5031019;28;20713;-71
2023/06/22 03:11:57;;;;;;;27.23;19.70;;;;;;;18.91;100.00;101766.38;5032319;28;20026;-71
2023/06/22 03:14:26;;;;;;;35.63;21.92;;;;;;;18.82;100.00;101778.78;5034701;28;20033;-71
2023/06/22 03:16:52;;;;;;;33.67;22.48;;;;;;;18.85;100.00;101773.16;5033197;28;20079;-70
2023/06/22 03:19:19;;;;;;;30.48;21.50;;;;;;;18.63;100.00;101778.59;5030120;28;20045;-71
2023/06/22 03:21:44;;;;;;;30.83;21.58;;;;;;;18.52;100.00;101770.50;5035437;28;20032;-71
2023/06/22 03:24:10;;;;;;;32.03;21.75;;;;;;;18.33;100.00;101772.03;5038260;28;20064;-71
2023/06/22 03:26:37;;;;;;;31.02;21.50;;;;;;;18.41;100.00;101771.38;5037312;28;20638;-71
2023/06/22 03:29:03;;;;;;;31.15;22.17;;;;;;;18.47;100.00;101770.88;5035956;28;20033;-71
2023/06/22 03:31:29;;;;;;;30.65;23.65;;;;;;;18.07;100.00;101775.94;5035415;28;20889;-71
2023/06/22 03:33:55;;;;;;;33.35;24.58;;;;;;;18.02;100.00;101778.16;5034033;28;20117;-71
2023/06/22 03:36:22;;;;;;;31.67;25.17;;;;;;;18.00;100.00;101766.63;5043105;28;20056;-71
2023/06/22 03:38:49;;;;;;;30.90;23.88;;;;;;;18.17;100.00;101771.53;5034033;28;20049;-71
2023/06/22 03:41:15;;;;;;;32.15;22.55;;;;;;;18.11;100.00;101764.78;5035406;28;20026;-71
2023/06/22 03:43:41;;;;;;;39.15;25.75;;;;;;;18.14;100.00;101768.22;5043410;28;20210;-71
2023/06/22 03:46:07;;;;;;;38.15;25.90;;;;;;;18.10;100.00;101762.22;5040363;28;20113;-71
2023/06/22 03:48:33;;;;;;;34.58;24.88;;;;;;;18.22;100.00;101765.75;5034858;28;20052;-70
2023/06/22 03:51:02;;;;;;;36.17;25.30;;;;;;;18.24;100.00;101761.97;5034923;28;20304;-71
2023/06/22 03:53:29;;;;;;;35.97;25.83;;;;;;;18.29;100.00;101767.84;5033924;28;20048;-71
2023/06/22 03:55:54;;;;;;;36.08;25.75;;;;;;;18.12;100.00;101771.03;5033467;28;20208;-71
2023/06/22 03:58:20;;;;;;;36.55;25.23;;;;;;;18.21;100.00;101766.75;5036943;28;20245;-71
2023/06/22 04:00:47;;;;;;;33.17;25.55;;;;;;;18.26;100.00;101765.38;5034149;28;20056;-71
2023/06/22 04:03:13;;;;;;;41.53;26.52;;;;;;;18.34;100.00;101760.22;5036382;28;20063;-70
2023/06/22 04:05:40;;;;;;;40.30;26.15;;;;;;;18.37;100.00;101765.38;5038342;28;20033;-71
2023/06/22 04:08:06;;;;;;;37.90;26.35;;;;;;;18.04;100.00;101763.56;5032864;28;20426;-70
2023/06/22 04:10:32;;;;;;;38.65;28.20;;;;;;;18.08;100.00;101766.88;5034146;28;20399;-71
2023/06/22 04:12:57;;;;;;;44.03;28.73;;;;;;;17.97;100.00;101762.34;5036033;28;20046;-71
2023/06/22 04:15:23;;;;;;;42.03;29.42;;;;;;;17.97;100.00;101764.16;5034292;28;20257;-71
2023/06/22 04:17:48;;;;;;;44.58;29.48;;;;;;;18.02;100.00;101760.16;5041765;28;20038;-71
2023/06/22 04:20:14;;;;;;;41.05;28.58;;;;;;;18.11;100.00;101767.47;5042157;28;20800;-71
2023/06/22 04:22:39;;;;;;;39.75;29.30;;;;;;;18.23;100.00;101757.53;5042650;28;20030;-72
2023/06/22 04:25:09;;;;;;;46.47;30.88;;;;;;;18.24;100.00;101761.09;5038128;28;20494;-71
2023/06/22 04:27:40;;;;;;;48.95;30.50;;;;;;;18.43;100.00;101763.16;5042294;28;20048;-70
2023/06/22 04:30:07;;;;;;;42.47;30.25;;;;;;;18.51;100.00;101752.56;5043847;28;20188;-71
2023/06/22 04:32:39;;;;;;;41.47;30.98;;;;;;;18.39;100.00;101765.25;5036908;28;20028;-70
2023/06/22 04:35:06;;;;;;;43.70;31.15;;;;;;;18.97;100.00;101759.59;5036676;28;20053;-70
2023/06/22 04:37:32;;;;;;;41.53;30.60;;;;;;;19.39;100.00;101755.09;5038567;28;20038;-71
2023/06/22 04:39:57;;;;;;;41.00;29.33;;;;;;;20.40;100.00;101740.75;5046459;28;20041;-71
2023/06/22 04:42:28;;;;;;;39.78;30.50;;;;;;;20.63;100.00;101731.44;5042075;28;20030;-71
2023/06/22 04:44:53;;;;;;;45.67;29.42;;;;;;;20.92;100.00;101727.84;5046759;28;20495;-71
2023/06/22 04:47:19;;;;;;;35.40;27.48;;;;;;;21.49;100.00;101728.84;5036165;28;20029;-71
2023/06/22 04:49:44;;;;;;;38.58;29.08;;;;;;;21.08;100.00;101725.41;5034931;28;20068;-71
2023/06/22 04:52:11;;;;;;;40.90;29.10;;;;;;;21.06;100.00;101726.56;5039648;28;20049;-71
2023/06/22 04:54:39;;;;;;;39.20;29.58;;;;;;;20.68;100.00;101728.25;5037774;28;20067;-71
2023/06/22 04:57:09;;;;;;;39.72;29.60;;;;;;;20.69;100.00;101728.16;5044649;28;20069;-71
2023/06/22 04:59:36;;;;;;;41.25;31.67;;;;;;;20.25;100.00;101723.19;5044535;28;20569;-71
2023/06/22 05:02:02;;;;;;;38.03;31.60;;;;;;;20.49;100.00;101718.28;5045048;28;20064;-71
2023/06/22 05:04:31;;;;;;;38.28;31.17;;;;;;;20.80;100.00;101721.72;5050966;28;20653;-71
2023/06/22 05:06:57;;;;;;;41.40;32.08;;;;;;;21.24;100.00;101718.56;5044927;28;20050;-71
2023/06/22 05:09:24;;;;;;;38.83;30.02;;;;;;;21.44;100.00;101725.69;5037088;28;20037;-71
2023/06/22 05:11:51;;;;;;;39.53;31.65;;;;;;;23.17;100.00;101714.00;5037472;28;20033;-71
2023/06/22 05:14:17;;;;;;;34.55;29.25;;;;;;;23.62;100.00;101708.34;5035635;28;20029;-71
2023/06/22 05:16:43;;;;;;;39.13;30.60;;;;;;;22.65;100.00;101716.56;5042038;28;20029;-71
2023/06/22 05:19:08;;;;;;;38.22;30.50;;;;;;;22.57;100.00;101720.03;5042182;28;20180;-71
2023/06/22 05:21:34;;;;;;;38.00;30.35;;;;;;;22.59;100.00;101720.75;5046172;28;20087;-72
2023/06/22 05:24:01;;;;;;;35.70;30.48;;;;;;;23.11;100.00;101710.03;5047204;28;20044;-71
2023/06/22 05:26:27;;;;;;;41.35;31.73;;;;;;;22.58;100.00;101710.00;5043023;28;20069;-71
2023/06/22 05:28:53;;;;;;;38.70;32.03;;;;;;;22.66;100.00;101719.13;5046569;28;20415;-71
2023/06/22 05:31:19;;;;;;;37.63;31.77;;;;;;;22.62;100.00;101717.72;5043876;28;20025;-71
2023/06/22 05:33:46;;;;;;;42.95;32.47;;;;;;;22.95;100.00;101720.78;5039984;28;20037;-71
2023/06/22 05:36:12;;;;;;;42.53;32.30;;;;;;;22.67;100.00;101715.38;5030610;28;20042;-71
2023/06/22 05:38:38;;;;;;;44.17;32.75;;;;;;;22.97;100.00;101718.75;5035431;28;20030;-71
2023/06/22 05:41:04;;;;;;;40.15;33.75;;;;;;;22.46;100.00;101718.41;5038346;28;20048;-71
2023/06/22 05:43:30;;;;;;;41.80;32.55;;;;;;;22.55;100.00;101718.50;5045339;28;20036;-71
2023/06/22 05:45:56;;;;;;;36.15;31.80;;;;;;;22.80;100.00;101728.59;5044358;28;20080;-71
2023/06/22 05:48:21;;;;;;;40.15;30.90;;;;;;;22.54;100.00;101733.97;5036568;28;20094;-71
2023/06/22 05:50:47;;;;;;;37.35;31.58;;;;;;;22.44;100.00;101744.00;5046871;28;20041;-71
2023/06/22 05:53:12;;;;;;;37.65;30.67;;;;;;;22.55;100.00;101732.94;5046830;28;20049;-71
2023/06/22 05:55:38;;;;;;;35.17;30.88;;;;;;;22.95;100.00;101737.97;5042073;28;20044;-70
2023/06/22 05:58:04;;;;;;;38.75;30.95;;;;;;;22.95;100.00;101731.66;5042047;28;20028;-71
2023/06/22 06:00:30;;;;;;;41.88;31.33;;;;;;;22.78;100.00;101730.63;5036453;28;20034;-71
2023/06/22 06:02:56;;;;;;;37.47;30.85;;;;;;;23.27;100.00;101731.94;5036072;28;20041;-71
2023/06/22 06:05:23;;;;;;;37.63;30.27;;;;;;;23.69;100.00;101723.03;5035897;28;20073;-71
2023/06/22 06:07:49;;;;;;;33.38;29.75;;;;;;;23.48;100.00;101722.53;5029274;28;20107;-71
2023/06/22 06:10:15;;;;;;;34.92;29.23;;;;;;;23.74;100.00;101725.28;5033671;28;20080;-71
2023/06/22 06:12:40;;;;;;;35.30;29.75;;;;;;;24.13;100.00;101731.09;5034490;28;20128;-71
2023/06/22 06:15:07;;;;;;;36.33;29.95;;;;;;;24.14;100.00;101729.22;5030201;28;20849;-71
2023/06/22 06:17:32;;;;;;;33.30;29.70;;;;;;;23.72;100.00;101720.00;5030038;28;20115;-71
2023/06/22 06:20:00;;;;;;;32.92;29.52;;;;;;;24.17;100.00;101718.00;5034979;28;20033;-71
2023/06/22 06:22:25;;;;;;;34.88;28.58;;;;;;;23.77;98.77;101722.25;5030023;28;20021;-71
2023/06/22 06:24:51;;;;;;;33.58;29.42;;;;;;;23.91;100.00;101724.38;5039119;28;20811;-72
2023/06/22 06:27:19;;;;;;;33.33;28.65;;;;;;;23.35;100.00;101728.44;5029476;28;20038;-71
2023/06/22 06:29:48;;;;;;;35.17;30.10;;;;;;;23.65;100.00;101723.56;5033285;28;20114;-71
2023/06/22 06:32:14;;;;;;;33.83;28.27;;;;;;;23.10;100.00;101721.94;5035384;28;20973;-71
2023/06/22 06:34:40;;;;;;;35.05;29.00;;;;;;;23.48;100.00;101726.13;5036696;28;20140;-71
2023/06/22 06:37:06;;;;;;;34.95;28.30;;;;;;;23.68;100.00;101725.94;5040550;28;20029;-71
2023/06/22 06:39:31;;;;;;;34.40;29.00;;;;;;;23.87;100.00;101725.72;5038218;28;20033;-72
2023/06/22 06:41:57;;;;;;;32.72;29.25;;;;;;;23.88;100.00;101716.50;5044309;28;20041;-71
2023/06/22 06:44:23;;;;;;;37.53;29.58;;;;;;;23.86;100.00;101714.97;5030478;28;20128;-71
2023/06/22 06:46:48;;;;;;;34.15;28.17;;;;;;;23.91;100.00;101712.63;5033998;28;20025;-71
2023/06/22 06:49:14;;;;;;;34.50;27.70;;;;;;;23.67;100.00;101703.28;5030947;28;20117;-71
2023/06/22 06:51:40;;;;;;;37.92;29.88;;;;;;;23.72;100.00;101711.00;5031832;28;20148;-71
2023/06/22 06:54:05;;;;;;;35.13;29.15;;;;;;;23.55;100.00;101717.34;5032878;28;20113;-73
2023/06/22 06:56:32;;;;;;;40.55;29.15;;;;;;;23.57;100.00;101707.97;5040572;28;20800;-73
2023/06/22 06:58:58;;;;;;;32.97;28.38;;;;;;;23.90;100.00;101711.78;5031622;28;20041;-74
2023/06/22 07:01:24;;;;;;;35.03;29.05;;;;;;;23.88;100.00;101711.06;5032007;28;20069;-73
2023/06/22 07:03:49;;;;;;;35.42;29.25;;;;;;;23.50;100.00;101707.78;5034303;28;20044;-73
2023/06/22 07:06:16;;;;;;;32.83;27.40;;;;;;;23.76;100.00;101699.59;5031814;28;20061;-73
2023/06/22 07:08:42;;;;;;;31.50;26.88;;;;;;;23.68;100.00;101699.56;5031441;28;20546;-73
2023/06/22 07:11:08;;;;;;;31.70;27.50;;;;;;;23.74;100.00;101698.91;5031322;28;20100;-73
2023/06/22 07:13:34;;;;;;;33.55;28.58;;;;;;;23.76;100.00;101696.03;5029437;28;20708;-73
2023/06/22 07:15:59;;;;;;;33.42;28.15;;;;;;;23.76;100.00;101696.88;5028703;28;20814;-73
2023/06/22 07:18:26;;;;;;;35.55;30.33;;;;;;;23.21;100.00;101694.47;5033236;28;20037;-73
2023/06/22 07:20:52;;;;;;;36.05;29.23;;;;;;;23.63;100.00;101693.72;5033192;28;20458;-73
2023/06/22 07:23:18;;;;;;;37.22;30.38;;;;;;;23.75;100.00;101684.28;5033928;28;20082;-70
2023/06/22 07:25:43;;;;;;;36.33;28.30;;;;;;;23.87;100.00;101684.84;5028612;28;20045;-72
2023/06/22 07:28:09;;;;;;;35.97;30.15;;;;;;;23.45;100.00;101682.03;5030810;28;20072;-73
2023/06/22 07:30:35;;;;;;;34.53;30.10;;;;;;;23.78;100.00;101674.91;5037483;28;20041;-72
2023/06/22 07:33:08;;;;;;;34.10;30.33;;;;;;;23.62;100.00;101681.09;5041208;28;20037;-73
2023/06/22 07:35:33;;;;;;;34.17;29.13;;;;;;;23.98;100.00;101691.88;5042086;28;20935;-73
2023/06/22 07:37:59;;;;;;;32.92;28.33;;;;;;;23.78;100.00;101674.91;5037542;28;20482;-72
2023/06/22 07:40:26;;;;;;;36.95;28.38;;;;;;;23.66;100.00;101677.09;5032795;28;20033;-74
2023/06/22 07:42:52;;;;;;;32.40;28.48;;;;;;;23.76;100.00;101676.97;5035729;28;20069;-73
2023/06/22 07:45:17;;;;;;;35.90;28.60;;;;;;;23.68;100.00;101669.59;5032323;28;20042;-73
2023/06/22 07:47:44;;;;;;;34.42;28.27;;;;;;;23.98;100.00;101665.47;5036893;28;20045;-73
2023/06/22 07:50:10;;;;;;;36.28;29.15;;;;;;;24.42;100.00;101673.47;5032303;28;20036;-73
2023/06/22 07:52:35;;;;;;;30.20;26.92;;;;;;;24.43;100.00;101668.84;5031504;28;20089;-73
2023/06/22 07:55:02;;;;;;;33.42;27.27;;;;;;;24.68;97.71;101662.41;5028831;28;20503;-73
2023/06/22 07:57:33;;;;;;;30.77;27.50;;;;;;;24.57;95.93;101661.91;5031262;28;20029;-72
2023/06/22 08:00:04;;;;;;;35.70;28.50;;;;;;;25.09;100.00;101664.31;5038724;28;20036;-73
2023/06/22 08:02:38;;;;;;;31.95;26.63;;;;;;;25.01;92.78;101666.00;5036727;28;21049;-72
2023/06/22 08:05:04;;;;;;;31.98;27.75;;;;;;;24.93;93.73;101670.59;5041051;28;20069;-73
2023/06/22 08:07:32;;;;;;;33.80;27.98;;;;;;;24.77;94.85;101669.59;5032311;28;20345;-73
2023/06/22 08:09:58;;;;;;;30.85;27.55;;;;;;;24.53;95.85;101673.13;5035583;28;20037;-73
2023/06/22 08:12:24;;;;;;;32.33;27.25;;;;;;;24.71;97.83;101659.34;5034941;28;20045;-73
2023/06/22 08:14:50;;;;;;;31.75;25.80;;;;;;;25.31;95.15;101664.47;5039053;28;20044;-73
2023/06/22 08:17:16;;;;;;;31.65;26.38;;;;;;;25.48;92.01;101648.88;5038382;28;20048;-72
2023/06/22 08:19:41;;;;;;;33.63;28.50;;;;;;;24.88;97.78;101649.28;5043086;28;20648;-72
2023/06/22 08:22:07;;;;;;;33.30;26.85;;;;;;;24.94;94.47;101637.69;5040218;28;20034;-73
2023/06/22 08:24:33;;;;;;;31.20;27.23;;;;;;;24.53;100.00;101629.50;5031028;28;20042;-73
2023/06/22 08:26:58;;;;;;;33.65;28.13;;;;;;;24.39;100.00;101626.59;5030760;28;20044;-73
2023/06/22 08:29:24;;;;;;;33.78;27.35;;;;;;;24.56;97.47;101622.03;5031377;28;20068;-73
2023/06/22 08:31:49;;;;;;;30.63;25.05;;;;;;;25.45;94.64;101612.84;5031738;28;20049;-72
2023/06/22 08:34:15;;;;;;;32.92;27.25;;;;;;;25.53;91.16;101619.16;5031491;28;20084;-73
2023/06/22 08:36:44;;;;;;;32.55;26.75;;;;;;;25.78;91.71;101617.22;5029672;28;20033;-72
2023/06/22 08:39:10;;;;;;;33.40;26.88;;;;;;;25.57;92.79;101615.06;5032765;28;20095;-73
2023/06/22 08:41:36;;;;;;;31.27;26.88;;;;;;;25.68;91.35;101602.03;5034302;28;20063;-73
2023/06/22 08:44:02;;;;;;;36.47;27.42;;;;;;;25.41;88.35;101601.47;5033169;28;20399;-73
2023/06/22 08:46:31;;;;;;;33.00;27.67;;;;;;;25.52;93.65;101612.00;5033077;28;20037;-73
2023/06/22 08:48:57;;;;;;;29.92;25.92;;;;;;;25.66;91.42;101615.03;5031431;28;20173;-71
2023/06/22 08:51:23;;;;;;;31.80;26.17;;;;;;;26.38;87.06;101612.06;5032270;28;20042;-73
2023/06/22 08:53:49;;;;;;;31.45;25.80;;;;;;;26.32;84.84;101610.91;5033750;28;20044;-72
2023/06/22 08:56:15;;;;;;;33.92;25.08;;;;;;;26.24;83.68;101603.59;5032698;28;20092;-71
2023/06/22 08:58:41;;;;;;;29.17;24.23;;;;;;;26.33;84.73;101612.63;5032063;28;20064;-72
2023/06/22 09:01:07;;;;;;;27.98;23.50;;;;;;;26.06;83.55;101609.38;5036233;28;20738;-71
2023/06/22 09:03:34;;;;;;;32.28;24.50;;;;;;;26.10;90.47;101596.19;5031885;28;20510;-72
2023/06/22 09:06:00;;;;;;;27.17;24.27;;;;;;;26.19;83.48;101595.09;5039847;28;20092;-72
2023/06/22 09:08:26;;;;;;;28.33;25.05;;;;;;;26.19;83.76;101592.38;5040033;28;20067;-72
2023/06/22 09:10:51;;;;;;;28.13;23.58;;;;;;;26.11;81.88;101597.06;5034767;28;20817;-71
2023/06/22 09:13:17;;;;;;;27.67;23.48;;;;;;;25.86;82.01;101593.63;5031779;28;20025;-71
2023/06/22 09:15:42;;;;;;;25.65;22.95;;;;;;;26.28;83.23;101579.50;5040019;28;20037;-71
2023/06/22 09:18:11;;;;;;;29.20;23.35;;;;;;;26.64;84.24;101578.88;5037360;28;20163;-71
2023/06/22 09:20:36;;;;;;;25.40;21.95;;;;;;;26.77;79.74;101579.97;5032011;28;20108;-71
2023/06/22 09:23:02;;;;;;;28.50;22.83;;;;;;;26.28;79.77;101576.75;5043892;28;20029;-72
2023/06/22 09:25:27;;;;;;;25.30;20.70;;;;;;;26.46;78.87;101571.03;5031186;28;20030;-72
2023/06/22 09:27:53;;;;;;;26.55;20.38;;;;;;;26.25;79.14;101575.22;5037978;28;20081;-72
2023/06/22 09:30:19;;;;;;;23.20;19.88;;;;;;;26.36;77.79;101571.25;5033816;28;20041;-70
2023/06/22 09:32:44;;;;;;;24.67;20.40;;;;;;;26.50;79.79;101570.44;5032652;28;20865;-72
2023/06/22 09:35:12;;;;;;;24.30;20.25;;;;;;;26.25;82.28;101571.63;5039581;28;20045;-72
2023/06/22 09:37:38;;;;;;;26.27;21.23;;;;;;;25.99;82.69;101574.72;5036292;28;20095;-72
2023/06/22 09:40:12;;;;;;;21.75;19.45;;;;;;;26.39;81.67;101561.78;5039559;28;20072;-71
2023/06/22 09:42:38;;;;;;;21.90;18.90;;;;;;;25.97;81.75;101569.44;5038083;28;20034;-72
2023/06/22 09:45:05;;;;;;;22.92;19.00;;;;;;;26.04;79.58;101573.16;5036269;28;20036;-72
2023/06/22 09:47:30;;;;;;;21.67;19.02;;;;;;;26.08;82.30;101566.28;5040708;28;20442;-72
2023/06/22 09:49:56;;;;;;;21.92;18.23;;;;;;;25.63;79.09;101571.66;5035895;28;20044;-72
2023/06/22 09:52:22;;;;;;;22.48;18.27;;;;;;;25.90;79.46;101573.06;5039445;28;20049;-72
2023/06/22 09:54:48;;;;;;;21.98;18.95;;;;;;;25.76;80.60;101575.56;5032705;28;20195;-72
2023/06/22 09:57:13;;;;;;;23.00;17.92;;;;;;;25.63;82.40;101574.38;5032096;28;20038;-71
2023/06/22 09:59:39;;;;;;;26.15;18.42;;;;;;;25.59;84.48;101568.41;5033584;28;20536;-71
2023/06/22 10:02:08;;;;;;;21.20;18.38;;;;;;;25.57;82.66;101574.06;5036454;28;20017;-73
2023/06/22 10:04:37;;;;;;;18.98;16.75;;;;;;;25.38;79.36;101570.91;5042088;28;20044;-71
2023/06/22 10:07:03;;;;;;;21.75;18.85;;;;;;;25.29;80.42;101572.81;5033416;28;20033;-71
2023/06/22 10:09:28;;;;;;;19.50;17.17;;;;;;;25.37;81.20;101570.06;5033297;28;20061;-73
2023/06/22 10:11:54;;;;;;;18.50;16.50;;;;;;;25.11;81.79;101581.25;5039367;28;20071;-71
2023/06/22 10:14:19;;;;;;;23.05;16.85;;;;;;;24.93;83.70;101581.41;5036707;28;20080;-72
2023/06/22 10:16:45;;;;;;;26.85;17.42;;;;;;;24.91;84.38;101569.81;5033547;28;20037;-73
2023/06/22 10:19:10;;;;;;;18.65;16.25;;;;;;;25.08;84.14;101569.81;5035100;28;20033;-71
2023/06/22 10:21:36;;;;;;;20.65;16.48;;;;;;;24.80;85.87;101567.47;5047929;28;20361;-72
2023/06/22 10:24:05;;;;;;;21.55;17.27;;;;;;;24.76;87.51;101571.56;5032798;28;20536;-71
2023/06/22 10:26:34;;;;;;;24.88;17.25;;;;;;;24.70;83.76;101569.47;5035854;28;20322;-73
2023/06/22 10:29:02;;;;;;;19.05;16.23;;;;;;;24.65;86.60;101572.75;5039006;28;21029;-73
2023/06/22 10:31:27;;;;;;;18.60;16.17;;;;;;;24.64;86.25;101571.03;5031187;28;20032;-71
2023/06/22 10:33:53;;;;;;;18.52;16.02;;;;;;;24.80;87.90;101571.03;5031560;28;20890;-71
2023/06/22 10:36:19;;;;;;;22.83;16.60;;;;;;;24.74;87.54;101570.84;5029950;28;20041;-72
2023/06/22 10:38:46;;;;;;;19.52;16.30;;;;;;;24.83;84.93;101567.09;5031022;28;20485;-71
2023/06/22 10:41:12;;;;;;;21.08;16.20;;;;;;;25.03;84.92;101562.09;5035559;28;20038;-74
2023/06/22 10:43:38;;;;;;;20.27;16.83;;;;;;;24.92;85.08;101567.94;5031547;28;20037;-73
2023/06/22 10:46:04;;;;;;;19.98;17.13;;;;;;;25.03;84.81;101554.78;5031288;28;20025;-73
2023/06/22 10:48:29;;;;;;;21.52;17.17;;;;;;;24.71;88.11;101561.16;5027680;28;20104;-73
2023/06/22 10:50:55;;;;;;;18.38;16.38;;;;;;;24.64;86.22;101562.00;5030440;28;20119;-73
2023/06/22 10:53:21;;;;;;;20.52;15.93;;;;;;;24.49;87.68;101565.41;5040475;28;20148;-73
2023/06/22 10:55:47;;;;;;;21.67;17.17;;;;;;;24.32;94.51;101552.78;5038906;28;20119;-72
2023/06/22 10:58:13;;;;;;;23.90;17.83;;;;;;;23.85;99.59;101542.50;5039814;28;20904;-72
2023/06/22 11:00:39;;;;;;;20.33;16.63;;;;;;;23.62;100.00;101544.94;5031986;28;20033;-72
2023/06/22 11:03:05;;;;;;;21.10;17.02;;;;;;;23.53;100.00;101535.88;5037608;28;20033;-72